createdAt,value
2022-10-18T00:00:12.405Z,4.30
2022-10-18T00:01:14.159Z,4.53
2022-10-18T00:02:15.827Z,6.40
2022-10-18T00:03:17.472Z,6.23
2022-10-18T00:04:19.022Z,6.20
2022-10-18T00:05:20.577Z,5.87
2022-10-18T00:06:22.150Z,7.33
2022-10-18T00:07:23.755Z,6.17
2022-10-18T00:08:26.390Z,4.83
2022-10-18T00:09:27.915Z,7.80
2022-10-18T00:10:29.456Z,4.67
2022-10-18T00:11:31.017Z,5.13
2022-10-18T00:12:37.339Z,6.10
2022-10-18T00:13:39.117Z,7.60
2022-10-18T00:14:40.692Z,7.37
2022-10-18T00:16:12.980Z,5.83
2022-10-18T00:17:14.530Z,5.67
2022-10-18T00:18:16.045Z,4.80
2022-10-18T00:19:17.570Z,3.90
2022-10-18T00:20:19.656Z,4.30
2022-10-18T00:21:22.970Z,5.63
2022-10-18T00:22:25.409Z,4.53
2022-10-18T00:23:28.437Z,4.33
2022-10-18T00:24:29.987Z,4.80
2022-10-18T00:25:31.499Z,5.03
2022-10-18T00:26:33.132Z,5.17
2022-10-18T00:27:35.308Z,5.63
2022-10-18T00:28:39.074Z,5.90
2022-10-18T00:29:40.715Z,4.83
2022-10-18T00:30:42.291Z,5.23
2022-10-18T00:31:44.433Z,4.47
2022-10-18T00:32:45.967Z,6.33
2022-10-18T00:33:50.992Z,5.43
2022-10-18T00:34:52.762Z,5.07
2022-10-18T00:35:54.346Z,8.47
2022-10-18T00:36:56.001Z,5.33
2022-10-18T00:37:57.533Z,4.50
2022-10-18T00:38:59.047Z,6.87
2022-10-18T00:40:00.614Z,4.47
2022-10-18T00:41:03.101Z,4.17
2022-10-18T00:42:04.879Z,4.67
2022-10-18T00:43:06.406Z,5.17
2022-10-18T00:44:27.847Z,5.83
2022-10-18T00:45:29.578Z,3.67
2022-10-18T00:46:33.953Z,6.20
2022-10-18T00:47:35.861Z,6.03
2022-10-18T00:48:37.630Z,5.90
2022-10-18T00:49:43.912Z,6.07
2022-10-18T00:50:46.590Z,5.60
2022-10-18T00:52:00.781Z,3.77
2022-10-18T00:53:07.012Z,6.37
2022-10-18T00:54:08.624Z,5.03
2022-10-18T00:55:10.842Z,5.00
2022-10-18T00:56:13.667Z,5.07
2022-10-18T00:57:15.813Z,4.77
2022-10-18T00:58:19.266Z,6.53
2022-10-18T00:59:21.256Z,4.43
2022-10-18T01:00:23.086Z,8.37
2022-10-18T01:01:27.608Z,4.23
2022-10-18T01:02:32.120Z,5.33
2022-10-18T01:03:35.389Z,6.40
2022-10-18T01:04:37.126Z,6.03
2022-10-18T01:05:44.218Z,6.60
2022-10-18T01:07:08.759Z,6.43
2022-10-18T01:08:19.259Z,5.53
2022-10-18T01:09:30.739Z,5.37
2022-10-18T01:10:48.383Z,7.40
2022-10-18T01:12:08.513Z,6.20
2022-10-18T01:13:57.665Z,6.83
2022-10-18T01:15:06.268Z,6.93
2022-10-18T01:16:17.187Z,6.83
2022-10-18T01:17:32.805Z,5.93
2022-10-18T01:18:37.471Z,6.07
2022-10-18T01:20:03.404Z,6.17
2022-10-18T01:21:22.430Z,6.00
2022-10-18T01:22:28.994Z,5.83
2022-10-18T01:24:05.446Z,5.97
2022-10-18T01:25:07.098Z,8.20
2022-10-18T01:26:35.047Z,5.43
2022-10-18T01:27:59.442Z,6.33
2022-10-18T01:29:17.146Z,5.67
2022-10-18T01:30:48.319Z,5.30
2022-10-18T01:32:06.334Z,6.40
2022-10-18T01:33:10.482Z,4.33
2022-10-18T01:34:16.941Z,5.73
2022-10-18T01:35:25.395Z,4.53
2022-10-18T01:36:34.912Z,4.23
2022-10-18T01:37:38.677Z,6.80
2022-10-18T01:38:42.908Z,5.10
2022-10-18T01:39:47.269Z,4.07
2022-10-18T01:40:50.690Z,6.33
2022-10-18T01:41:54.406Z,4.50
2022-10-18T01:42:56.046Z,6.33
2022-10-18T01:44:02.176Z,3.00
2022-10-18T01:45:04.618Z,3.30
2022-10-18T01:46:08.635Z,3.63
2022-10-18T01:47:13.079Z,5.07
2022-10-18T01:48:16.365Z,4.27
2022-10-18T01:49:17.879Z,4.43
2022-10-18T01:50:29.437Z,3.73
2022-10-18T01:51:33.043Z,4.17
2022-10-18T01:52:34.998Z,7.03
2022-10-18T01:53:36.654Z,5.00
2022-10-18T01:54:42.265Z,3.43
2022-10-18T01:55:51.184Z,3.40
2022-10-18T01:57:00.392Z,3.50
2022-10-18T01:58:39.541Z,3.87
2022-10-18T01:59:59.307Z,4.20
2022-10-18T02:02:39.900Z,5.80
2022-10-18T02:03:44.565Z,4.40
2022-10-18T02:05:06.747Z,5.07
2022-10-18T02:06:18.948Z,6.57
2022-10-18T02:07:37.199Z,5.60
2022-10-18T02:08:44.701Z,5.53
2022-10-18T02:09:55.676Z,4.17
2022-10-18T02:11:02.686Z,6.10
2022-10-18T02:12:06.371Z,6.00
2022-10-18T02:13:10.858Z,6.17
2022-10-18T02:14:16.479Z,4.90
2022-10-18T02:15:23.789Z,4.83
2022-10-18T02:16:37.832Z,5.93
2022-10-18T02:17:40.734Z,4.57
2022-10-18T02:19:05.835Z,6.70
2022-10-18T02:20:10.170Z,5.50
2022-10-18T02:21:15.885Z,6.37
2022-10-18T02:22:18.533Z,7.33
2022-10-18T02:23:24.047Z,5.67
2022-10-18T02:24:34.439Z,5.40
2022-10-18T02:25:36.941Z,8.40
2022-10-18T02:26:38.837Z,5.27
2022-10-18T02:27:40.436Z,4.03
2022-10-18T02:28:42.603Z,7.20
2022-10-18T02:29:45.214Z,8.13
2022-10-18T02:30:53.208Z,8.17
2022-10-18T02:32:31.540Z,7.00
2022-10-18T02:33:45.405Z,5.83
2022-10-18T02:34:57.169Z,6.27
2022-10-18T02:36:10.516Z,5.77
2022-10-18T02:37:14.479Z,7.20
2022-10-18T02:38:18.845Z,5.97
2022-10-18T02:39:35.796Z,4.60
2022-10-18T02:40:37.647Z,5.80
2022-10-18T02:41:39.266Z,4.17
2022-10-18T02:42:50.918Z,4.37
2022-10-18T02:43:53.054Z,7.27
2022-10-18T02:44:54.641Z,4.47
2022-10-18T02:45:56.222Z,5.27
2022-10-18T02:46:57.733Z,5.70
2022-10-18T02:47:59.284Z,4.43
2022-10-18T02:49:00.826Z,5.40
2022-10-18T02:50:02.376Z,5.37
2022-10-18T02:51:03.995Z,7.10
2022-10-18T02:52:05.540Z,5.57
2022-10-18T02:53:07.036Z,5.77
2022-10-18T02:54:08.655Z,7.23
2022-10-18T02:55:10.855Z,5.40
2022-10-18T02:56:12.444Z,4.93
2022-10-18T02:57:14.008Z,9.13
2022-10-18T02:58:15.528Z,6.60
2022-10-18T02:59:17.073Z,5.17
2022-10-18T03:00:18.698Z,6.63
2022-10-18T03:01:20.271Z,6.10
2022-10-18T03:02:21.847Z,5.90
2022-10-18T03:03:23.385Z,7.43
2022-10-18T03:04:24.941Z,7.47
2022-10-18T03:05:26.502Z,6.57
2022-10-18T03:06:28.597Z,6.30
2022-10-18T03:07:30.657Z,7.67
2022-10-18T03:08:32.531Z,6.93
2022-10-18T03:09:34.056Z,6.57
2022-10-18T03:10:35.585Z,5.80
2022-10-18T03:11:37.235Z,5.77
2022-10-18T03:12:38.817Z,6.37
2022-10-18T03:13:40.352Z,8.43
2022-10-18T03:14:41.872Z,8.53
2022-10-18T03:15:43.404Z,8.73
2022-10-18T03:16:44.949Z,7.23
2022-10-18T03:17:46.518Z,6.70
2022-10-18T03:18:48.034Z,10.67
2022-10-18T03:19:49.659Z,10.07
2022-10-18T03:20:51.171Z,9.03
2022-10-18T03:21:52.789Z,11.07
2022-10-18T03:22:54.320Z,9.23
2022-10-18T03:23:56.228Z,6.83
2022-10-18T03:24:57.737Z,7.17
2022-10-18T03:25:59.242Z,8.03
2022-10-18T03:27:00.907Z,6.77
2022-10-18T03:28:02.557Z,8.70
2022-10-18T03:29:04.161Z,6.87
2022-10-18T03:30:06.159Z,6.40
2022-10-18T03:31:07.671Z,6.70
2022-10-18T03:32:09.179Z,6.30
2022-10-18T03:33:10.699Z,10.47
2022-10-18T03:34:12.235Z,8.80
2022-10-18T03:35:13.746Z,8.17
2022-10-18T03:36:15.414Z,8.13
2022-10-18T03:37:17.033Z,7.80
2022-10-18T03:38:19.161Z,8.87
2022-10-18T03:39:20.878Z,7.70
2022-10-18T03:40:23.181Z,7.33
2022-10-18T03:41:24.812Z,7.73
2022-10-18T03:42:26.382Z,8.57
2022-10-18T03:43:27.945Z,6.33
2022-10-18T03:44:29.553Z,6.80
2022-10-18T03:45:31.652Z,10.57
2022-10-18T03:46:33.370Z,7.17
2022-10-18T03:47:34.977Z,8.37
2022-10-18T03:48:36.882Z,12.27
2022-10-18T03:49:39.042Z,6.23
2022-10-18T03:50:40.964Z,7.53
2022-10-18T03:51:42.478Z,8.10
2022-10-18T03:52:43.990Z,10.17
2022-10-18T03:53:45.535Z,9.37
2022-10-18T03:54:47.040Z,7.20
2022-10-18T03:55:55.601Z,6.03
2022-10-18T03:56:57.620Z,5.57
2022-10-18T03:57:59.147Z,6.97
2022-10-18T03:59:00.725Z,7.60
2022-10-18T04:00:02.273Z,9.67
2022-10-18T04:01:03.827Z,8.63
2022-10-18T04:02:05.479Z,10.13
2022-10-18T04:03:06.984Z,6.23
2022-10-18T04:04:08.545Z,8.17
2022-10-18T04:05:10.177Z,9.17
2022-10-18T04:06:11.707Z,8.77
2022-10-18T04:07:13.511Z,7.20
2022-10-18T04:08:15.523Z,7.53
2022-10-18T04:09:17.415Z,7.67
2022-10-18T04:10:18.961Z,9.53
2022-10-18T04:11:20.476Z,8.80
2022-10-18T04:12:22.009Z,7.63
2022-10-18T04:13:23.574Z,9.53
2022-10-18T04:14:25.212Z,7.90
2022-10-18T04:15:26.827Z,7.27
2022-10-18T04:16:28.361Z,8.47
2022-10-18T04:17:30.283Z,8.57
2022-10-18T04:18:34.737Z,9.33
2022-10-18T04:19:36.569Z,8.87
2022-10-18T04:20:38.263Z,9.17
2022-10-18T04:21:39.959Z,8.00
2022-10-18T04:22:41.568Z,9.57
2022-10-18T04:23:43.131Z,9.23
2022-10-18T04:24:44.760Z,9.60
2022-10-18T04:25:46.330Z,6.40
2022-10-18T04:26:47.883Z,9.37
2022-10-18T04:27:49.521Z,9.00
2022-10-18T04:28:51.249Z,9.80
2022-10-18T04:29:52.839Z,7.57
2022-10-18T04:30:54.394Z,9.30
2022-10-18T04:31:55.937Z,7.40
2022-10-18T04:32:57.471Z,10.00
2022-10-18T04:33:59.010Z,8.27
2022-10-18T04:35:00.599Z,8.37
2022-10-18T04:36:02.303Z,8.87
2022-10-18T04:37:03.842Z,6.90
2022-10-18T04:38:05.426Z,9.93
2022-10-18T04:39:07.031Z,8.33
2022-10-18T04:40:09.445Z,7.20
2022-10-18T04:41:10.965Z,7.03
2022-10-18T04:42:12.491Z,7.47
2022-10-18T04:43:14.041Z,10.17
2022-10-18T04:44:15.708Z,7.17
2022-10-18T04:45:17.333Z,7.73
2022-10-18T04:46:18.852Z,9.63
2022-10-18T04:47:20.487Z,6.93
2022-10-18T04:48:22.054Z,8.03
2022-10-18T04:49:23.569Z,11.70
2022-10-18T04:50:25.090Z,7.53
2022-10-18T04:51:27.269Z,9.80
2022-10-18T04:52:28.777Z,10.20
2022-10-18T04:53:30.362Z,9.07
2022-10-18T04:54:31.940Z,10.70
2022-10-18T04:55:33.463Z,8.00
2022-10-18T04:56:35.032Z,10.10
2022-10-18T04:57:36.598Z,8.50
2022-10-18T04:58:38.151Z,8.67
2022-10-18T04:59:39.686Z,8.30
2022-10-18T05:00:42.187Z,9.57
2022-10-18T05:01:43.813Z,8.73
2022-10-18T05:02:45.457Z,11.00
2022-10-18T05:03:47.009Z,8.97
2022-10-18T05:04:48.581Z,11.80
2022-10-18T05:06:01.263Z,8.83
2022-10-18T05:07:03.155Z,11.30
2022-10-18T05:08:06.805Z,8.83
2022-10-18T05:09:08.318Z,7.63
2022-10-18T05:10:10.108Z,9.73
2022-10-18T05:11:11.830Z,8.77
2022-10-18T05:12:13.391Z,10.57
2022-10-18T05:13:15.097Z,10.80
2022-10-18T05:14:16.952Z,8.93
2022-10-18T05:15:18.558Z,8.33
2022-10-18T05:16:20.295Z,10.93
2022-10-18T05:17:22.015Z,15.63
2022-10-18T05:18:23.536Z,11.50
2022-10-18T05:19:25.139Z,15.10
2022-10-18T05:20:26.654Z,14.67
2022-10-18T05:21:28.198Z,15.20
2022-10-18T05:22:30.007Z,10.60
2022-10-18T05:23:31.693Z,14.77
2022-10-18T05:24:33.210Z,15.73
2022-10-18T05:25:34.718Z,15.57
2022-10-18T05:26:36.354Z,19.93
2022-10-18T05:27:37.875Z,17.77
2022-10-18T05:28:40.859Z,20.80
2022-10-18T05:29:42.992Z,20.60
2022-10-18T05:30:44.549Z,18.37
2022-10-18T05:31:46.084Z,21.23
2022-10-18T05:32:47.695Z,19.17
2022-10-18T05:33:49.180Z,17.13
2022-10-18T05:34:50.713Z,17.80
2022-10-18T05:35:52.257Z,18.03
2022-10-18T05:36:53.792Z,16.43
2022-10-18T05:37:55.286Z,14.50
2022-10-18T05:38:58.620Z,16.70
2022-10-18T05:40:02.646Z,15.70
2022-10-18T05:41:05.357Z,16.27
2022-10-18T05:42:06.943Z,15.10
2022-10-18T05:43:08.476Z,12.33
2022-10-18T05:44:09.981Z,13.33
2022-10-18T05:45:11.525Z,11.90
2022-10-18T05:46:15.337Z,13.07
2022-10-18T05:47:17.305Z,14.50
2022-10-18T05:48:19.071Z,10.43
2022-10-18T05:49:20.841Z,11.50
2022-10-18T05:50:22.407Z,10.43
2022-10-18T05:51:24.111Z,10.17
2022-10-18T05:52:25.639Z,11.13
2022-10-18T05:53:37.100Z,9.63
2022-10-18T05:54:40.488Z,10.63
2022-10-18T05:55:42.009Z,10.50
2022-10-18T05:56:43.549Z,10.10
2022-10-18T05:57:50.178Z,11.87
2022-10-18T05:58:52.205Z,11.23
2022-10-18T05:59:53.749Z,11.30
2022-10-18T06:00:59.151Z,12.30
2022-10-18T06:02:00.738Z,12.03
2022-10-18T06:03:02.273Z,16.60
2022-10-18T06:04:03.879Z,11.93
2022-10-18T06:05:05.573Z,11.13
2022-10-18T06:06:10.124Z,11.70
2022-10-18T06:07:12.474Z,12.17
2022-10-18T06:08:14.197Z,12.23
2022-10-18T06:09:15.761Z,9.80
2022-10-18T06:10:17.282Z,12.23
2022-10-18T06:11:20.338Z,10.87
2022-10-18T06:12:21.876Z,12.10
2022-10-18T06:13:23.587Z,18.77
2022-10-18T06:14:25.142Z,11.97
2022-10-18T06:15:26.721Z,15.10
2022-10-18T06:16:32.195Z,18.53
2022-10-18T06:17:34.456Z,9.93
2022-10-18T06:18:36.629Z,13.57
2022-10-18T06:19:38.138Z,13.23
2022-10-18T06:20:39.659Z,10.23
2022-10-18T06:21:41.546Z,11.17
2022-10-18T06:22:43.058Z,18.03
2022-10-18T06:23:51.831Z,14.63
2022-10-18T06:24:57.126Z,10.97
2022-10-18T06:26:04.107Z,8.93
2022-10-18T06:27:09.039Z,15.17
2022-10-18T06:28:12.281Z,16.93
2022-10-18T06:29:15.231Z,12.47
2022-10-18T06:30:17.056Z,11.40
2022-10-18T06:31:21.309Z,10.97
2022-10-18T06:32:22.873Z,10.77
2022-10-18T06:33:24.711Z,11.87
2022-10-18T06:34:26.322Z,13.03
2022-10-18T06:35:27.890Z,11.17
2022-10-18T06:36:29.403Z,12.03
2022-10-18T06:37:31.331Z,10.00
2022-10-18T06:38:34.359Z,14.07
2022-10-18T06:39:35.909Z,16.87
2022-10-18T06:40:38.224Z,19.20
2022-10-18T06:41:39.797Z,18.13
2022-10-18T06:42:41.393Z,17.23
2022-10-18T06:43:43.853Z,15.83
2022-10-18T06:44:45.433Z,16.97
2022-10-18T06:45:47.018Z,14.30
2022-10-18T06:46:49.336Z,15.50
2022-10-18T06:47:50.849Z,12.97
2022-10-18T06:48:52.372Z,19.17
2022-10-18T06:49:53.947Z,19.67
2022-10-18T06:51:00.573Z,12.37
2022-10-18T06:52:02.452Z,14.73
2022-10-18T06:53:06.229Z,12.10
2022-10-18T06:54:17.612Z,13.33
2022-10-18T06:55:19.856Z,17.30
2022-10-18T06:56:21.434Z,10.30
2022-10-18T06:57:22.987Z,11.90
2022-10-18T06:58:24.545Z,9.83
2022-10-18T06:59:28.885Z,11.20
2022-10-18T07:00:32.757Z,13.70
2022-10-18T07:01:34.400Z,11.50
2022-10-18T07:02:37.442Z,12.30
2022-10-18T07:03:39.696Z,8.80
2022-10-18T07:04:42.072Z,13.50
2022-10-18T07:05:43.711Z,12.40
2022-10-18T07:06:45.387Z,10.67
2022-10-18T07:07:46.898Z,20.23
2022-10-18T07:08:49.670Z,11.70
2022-10-18T07:09:51.224Z,12.53
2022-10-18T07:10:53.354Z,11.33
2022-10-18T07:11:54.935Z,9.97
2022-10-18T07:13:19.683Z,11.83
2022-10-18T07:14:17.933Z,12.03
2022-10-18T07:15:22.604Z,11.00
2022-10-18T07:16:24.201Z,14.23
2022-10-18T07:17:26.426Z,10.53
2022-10-18T07:18:28.037Z,12.23
2022-10-18T07:19:29.558Z,16.33
2022-10-18T07:20:31.106Z,13.53
2022-10-18T07:21:32.669Z,11.20
2022-10-18T07:22:34.223Z,12.23
2022-10-18T07:23:37.509Z,11.60
2022-10-18T07:24:39.397Z,10.00
2022-10-18T07:25:40.930Z,11.57
2022-10-18T07:26:42.676Z,16.67
2022-10-18T07:27:44.192Z,18.53
2022-10-18T07:28:48.914Z,16.93
2022-10-18T07:29:50.521Z,13.13
2022-10-18T07:30:52.107Z,12.07
2022-10-18T07:31:53.627Z,14.67
2022-10-18T07:32:55.143Z,11.97
2022-10-18T07:33:57.247Z,12.87
2022-10-18T07:34:58.781Z,12.57
2022-10-18T07:36:05.394Z,13.53
2022-10-18T07:37:06.916Z,17.77
2022-10-18T07:38:08.433Z,15.73
2022-10-18T07:39:10.071Z,12.90
2022-10-18T07:40:12.202Z,14.33
2022-10-18T07:41:15.025Z,13.63
2022-10-18T07:42:16.607Z,11.50
2022-10-18T07:43:18.125Z,10.70
2022-10-18T07:44:19.715Z,12.50
2022-10-18T07:45:21.261Z,12.60
2022-10-18T07:46:23.059Z,12.17
2022-10-18T07:47:24.587Z,17.70
2022-10-18T07:48:26.725Z,11.23
2022-10-18T07:49:28.226Z,14.50
2022-10-18T07:50:29.950Z,14.00
2022-10-18T07:51:32.891Z,16.10
2022-10-18T07:52:34.562Z,15.53
2022-10-18T07:53:36.095Z,10.80
2022-10-18T07:54:37.691Z,11.30
2022-10-18T07:55:39.587Z,11.60
2022-10-18T07:56:41.331Z,11.97
2022-10-18T07:57:42.891Z,13.40
2022-10-18T07:58:45.978Z,11.13
2022-10-18T07:59:48.334Z,8.77
2022-10-18T08:00:49.885Z,9.03
2022-10-18T08:01:51.496Z,17.30
2022-10-18T08:02:57.690Z,12.27
2022-10-18T08:04:06.138Z,14.43
2022-10-18T08:05:09.602Z,12.53
2022-10-18T08:06:13.367Z,10.77
2022-10-18T08:07:14.914Z,10.40
2022-10-18T08:08:16.698Z,13.87
2022-10-18T08:09:18.428Z,8.40
2022-10-18T08:10:21.352Z,8.03
2022-10-18T08:11:24.826Z,12.47
2022-10-18T08:12:26.358Z,8.30
2022-10-18T08:13:27.905Z,14.17
2022-10-18T08:14:29.725Z,11.03
2022-10-18T08:15:31.314Z,11.80
2022-10-18T08:17:34.830Z,11.63
2022-10-18T08:18:38.021Z,7.43
2022-10-18T08:19:48.230Z,9.87
2022-10-18T08:21:01.503Z,12.83
2022-10-18T08:22:03.084Z,12.53
2022-10-18T08:23:04.871Z,8.93
2022-10-18T08:24:06.450Z,20.67
2022-10-18T08:25:08.606Z,14.63
2022-10-18T08:26:12.934Z,12.43
2022-10-18T08:27:15.413Z,13.87
2022-10-18T08:28:17.513Z,12.03
2022-10-18T08:29:23.219Z,9.40
2022-10-18T08:30:26.493Z,8.23
2022-10-18T08:31:28.137Z,7.30
2022-10-18T08:32:33.404Z,9.30
2022-10-18T08:33:36.256Z,10.63
2022-10-18T08:35:40.295Z,6.50
2022-10-18T08:36:41.940Z,15.23
2022-10-18T08:37:45.329Z,9.53
2022-10-18T08:38:47.130Z,17.57
2022-10-18T08:39:48.714Z,14.00
2022-10-18T08:40:50.845Z,7.80
2022-10-18T08:42:01.492Z,11.57
2022-10-18T08:43:22.626Z,11.77
2022-10-18T08:44:26.117Z,10.70
2022-10-18T08:45:41.466Z,12.53
2022-10-18T08:46:58.951Z,14.40
2022-10-18T08:48:01.557Z,8.37
2022-10-18T08:49:05.561Z,13.83
2022-10-18T08:50:14.893Z,12.17
2022-10-18T08:51:45.540Z,8.27
2022-10-18T08:53:25.940Z,7.93
2022-10-18T08:54:37.465Z,8.63
2022-10-18T08:56:11.242Z,9.13
2022-10-18T08:57:15.764Z,11.03
2022-10-18T08:58:19.918Z,7.67
2022-10-18T08:59:24.744Z,9.50
2022-10-18T09:00:34.494Z,13.97
2022-10-18T09:01:36.217Z,9.77
2022-10-18T09:03:16.769Z,7.80
2022-10-18T09:04:33.499Z,17.93
2022-10-18T09:06:01.384Z,12.70
2022-10-18T09:07:26.131Z,8.13
2022-10-18T09:09:11.354Z,8.27
2022-10-18T09:10:33.901Z,8.73
2022-10-18T09:11:51.097Z,7.17
2022-10-18T09:13:19.085Z,8.10
2022-10-18T09:14:32.498Z,9.97
2022-10-18T09:15:45.529Z,11.97
2022-10-18T09:17:05.917Z,10.57
2022-10-18T09:18:23.466Z,9.83
2022-10-18T09:19:55.175Z,10.93
2022-10-18T09:21:05.484Z,9.20
2022-10-18T09:22:13.934Z,10.07
2022-10-18T09:23:21.140Z,15.60
2022-10-18T09:24:32.829Z,11.43
2022-10-18T09:25:34.355Z,6.73
2022-10-18T09:26:50.141Z,15.53
2022-10-18T09:28:27.174Z,6.67
2022-10-18T09:29:54.744Z,10.47
2022-10-18T09:31:17.898Z,8.80
2022-10-18T09:32:44.783Z,5.73
2022-10-18T09:34:04.663Z,8.03
2022-10-18T09:35:24.206Z,6.00
2022-10-18T09:36:35.391Z,6.53
2022-10-18T09:37:37.014Z,7.23
2022-10-18T09:38:51.561Z,6.97
2022-10-18T09:40:03.215Z,6.63
2022-10-18T09:41:12.268Z,7.57
2022-10-18T09:42:26.831Z,6.43
2022-10-18T09:44:12.639Z,8.67
2022-10-18T09:45:37.845Z,7.43
2022-10-18T09:46:47.926Z,10.63
2022-10-18T09:48:04.476Z,8.20
2022-10-18T09:49:40.392Z,9.43
2022-10-18T09:50:46.454Z,7.43
2022-10-18T09:51:50.228Z,6.60
2022-10-18T09:53:02.140Z,7.70
2022-10-18T09:54:12.838Z,5.93
2022-10-18T09:55:28.732Z,11.70
2022-10-18T09:56:39.450Z,4.90
2022-10-18T09:57:57.321Z,6.23
2022-10-18T09:58:58.985Z,6.07
2022-10-18T10:00:03.328Z,5.50
2022-10-18T10:01:05.288Z,4.80
2022-10-18T10:02:09.366Z,5.27
2022-10-18T10:03:14.931Z,6.23
2022-10-18T10:04:16.435Z,8.50
2022-10-18T10:05:18.948Z,6.10
2022-10-18T10:06:29.973Z,6.40
2022-10-18T10:07:41.557Z,5.23
2022-10-18T10:09:07.389Z,5.70
2022-10-18T10:10:25.680Z,7.30
2022-10-18T10:11:28.766Z,5.87
2022-10-18T10:12:39.385Z,7.33
2022-10-18T10:13:40.975Z,4.33
2022-10-18T10:14:45.355Z,4.43
2022-10-18T10:16:03.263Z,5.10
2022-10-18T10:17:34.938Z,8.27
2022-10-18T10:18:40.289Z,7.43
2022-10-18T10:19:57.424Z,5.87
2022-10-18T10:21:01.856Z,8.93
2022-10-18T10:22:10.457Z,5.30
2022-10-18T10:23:37.385Z,6.77
2022-10-18T10:24:44.671Z,5.10
2022-10-18T10:25:52.012Z,5.80
2022-10-18T10:27:00.289Z,4.70
2022-10-18T10:28:13.343Z,8.00
2022-10-18T10:29:45.524Z,7.53
2022-10-18T10:30:47.559Z,6.82
2022-10-18T10:32:02.421Z,4.87
2022-10-18T10:33:06.713Z,6.83
2022-10-18T10:34:14.482Z,3.93
2022-10-18T10:35:42.322Z,8.47
2022-10-18T10:36:54.680Z,5.00
2022-10-18T10:37:57.161Z,8.48
2022-10-18T10:39:18.977Z,4.07
2022-10-18T10:40:26.372Z,4.83
2022-10-18T10:42:59.997Z,3.77
2022-10-18T10:44:26.285Z,5.67
2022-10-18T10:45:41.286Z,5.60
2022-10-18T10:46:43.487Z,6.13
2022-10-18T10:47:45.073Z,4.23
2022-10-18T10:49:09.579Z,4.10
2022-10-18T10:50:28.313Z,2.87
2022-10-18T10:51:29.854Z,7.90
2022-10-18T10:52:31.635Z,5.20
2022-10-18T10:53:59.039Z,3.23
2022-10-18T10:55:30.459Z,4.47
2022-10-18T10:56:53.199Z,5.30
2022-10-18T10:57:56.346Z,4.27
2022-10-18T10:59:14.517Z,4.03
2022-10-18T11:00:39.121Z,5.63
2022-10-18T11:01:41.732Z,3.03
2022-10-18T11:02:54.277Z,3.53
2022-10-18T11:04:28.122Z,5.73
2022-10-18T11:05:29.673Z,3.87
2022-10-18T11:06:34.261Z,3.87
2022-10-18T11:07:43.290Z,3.90
2022-10-18T11:10:01.272Z,4.47
2022-10-18T11:11:27.716Z,6.23
2022-10-18T11:12:52.431Z,4.03
2022-10-18T11:14:21.115Z,3.03
2022-10-18T11:15:43.321Z,5.80
2022-10-18T11:17:08.061Z,5.70
2022-10-18T11:18:24.162Z,3.17
2022-10-18T11:19:39.349Z,5.55
2022-10-18T11:20:46.138Z,3.92
2022-10-18T11:21:47.834Z,4.95
2022-10-18T11:23:19.272Z,3.97
2022-10-18T11:24:24.942Z,3.03
2022-10-18T11:25:52.614Z,4.93
2022-10-18T11:27:02.161Z,5.70
2022-10-18T11:28:12.038Z,4.18
2022-10-18T11:29:39.991Z,4.93
2022-10-18T11:30:47.836Z,4.70
2022-10-18T11:31:49.333Z,5.53
2022-10-18T11:33:15.745Z,7.65
2022-10-18T11:34:32.781Z,5.55
2022-10-18T11:35:54.590Z,5.20
2022-10-18T11:37:23.044Z,3.58
2022-10-18T11:38:29.362Z,5.25
2022-10-18T11:39:57.459Z,5.15
2022-10-18T11:41:27.810Z,4.17
2022-10-18T11:42:47.826Z,7.68
2022-10-18T11:44:02.244Z,6.05
2022-10-18T11:45:10.729Z,6.40
2022-10-18T11:46:44.879Z,6.13
2022-10-18T11:48:04.696Z,3.40
2022-10-18T11:49:11.571Z,6.40
2022-10-18T11:50:26.597Z,4.75
2022-10-18T11:51:50.220Z,5.68
2022-10-18T11:52:55.878Z,3.90
2022-10-18T11:54:15.509Z,3.72
2022-10-18T11:55:38.516Z,4.88
2022-10-18T11:56:52.303Z,3.00
2022-10-18T11:58:40.540Z,3.50
2022-10-18T12:00:02.837Z,4.72
2022-10-18T12:01:28.916Z,5.40
2022-10-18T12:02:55.935Z,4.18
2022-10-18T12:04:03.279Z,3.42
2022-10-18T12:06:37.402Z,5.60
2022-10-18T12:07:58.430Z,5.15
2022-10-18T12:09:08.167Z,4.80
2022-10-18T12:10:22.079Z,7.15
2022-10-18T12:11:44.019Z,3.60
2022-10-18T12:12:58.408Z,4.05
2022-10-18T12:14:03.392Z,3.80
2022-10-18T12:15:16.208Z,4.63
2022-10-18T12:16:38.866Z,5.35
2022-10-18T12:17:52.618Z,5.63
2022-10-18T12:19:00.378Z,6.03
2022-10-18T12:20:11.360Z,4.95
2022-10-18T12:21:13.788Z,6.75
2022-10-18T12:22:28.333Z,3.78
2022-10-18T12:23:29.920Z,6.18
2022-10-18T12:24:33.113Z,4.03
2022-10-18T12:25:38.587Z,4.57
2022-10-18T12:26:40.369Z,5.80
2022-10-18T12:28:17.289Z,4.90
2022-10-18T12:29:35.355Z,6.72
2022-10-18T12:31:03.117Z,7.18
2022-10-18T12:32:16.609Z,6.13
2022-10-18T12:33:28.125Z,5.45
2022-10-18T12:34:36.486Z,6.72
2022-10-18T12:36:06.010Z,6.55
2022-10-18T12:37:35.405Z,6.65
2022-10-18T12:38:41.585Z,7.72
2022-10-18T12:40:12.463Z,5.78
2022-10-18T12:41:22.832Z,6.43
2022-10-18T12:42:30.894Z,5.13
2022-10-18T12:43:37.940Z,4.22
2022-10-18T12:44:40.226Z,8.98
2022-10-18T12:45:54.659Z,5.07
2022-10-18T12:46:58.750Z,4.72
2022-10-18T12:48:07.647Z,6.82
2022-10-18T12:49:11.713Z,7.13
2022-10-18T12:50:35.202Z,5.78
2022-10-18T12:51:50.789Z,7.78
2022-10-18T12:53:10.255Z,9.30
2022-10-18T12:54:12.851Z,9.93
2022-10-18T12:55:19.453Z,8.13
2022-10-18T12:56:30.784Z,5.30
2022-10-18T12:57:53.795Z,6.68
2022-10-18T12:59:17.131Z,6.40
2022-10-18T13:00:31.010Z,4.22
2022-10-18T13:01:50.692Z,6.55
2022-10-18T13:03:18.121Z,10.77
2022-10-18T13:04:28.834Z,5.55
2022-10-18T13:05:53.515Z,8.00
2022-10-18T13:07:05.221Z,7.13
2022-10-18T13:08:31.690Z,7.32
2022-10-18T13:10:02.936Z,5.47
2022-10-18T13:11:10.509Z,7.43
2022-10-18T13:12:14.677Z,6.00
2022-10-18T13:13:40.525Z,4.97
2022-10-18T13:15:12.642Z,4.95
2022-10-18T13:16:22.768Z,8.95
2022-10-18T13:17:36.459Z,6.82
2022-10-18T13:18:52.267Z,7.90
2022-10-18T13:20:24.691Z,5.57
2022-10-18T13:21:58.501Z,7.13
2022-10-18T13:23:00.035Z,5.63
2022-10-18T13:24:14.843Z,7.75
2022-10-18T13:25:29.347Z,5.97
2022-10-18T13:26:58.149Z,4.97
2022-10-18T13:28:35.925Z,6.10
2022-10-18T13:30:00.869Z,7.15
2022-10-18T13:31:24.161Z,4.40
2022-10-18T13:32:44.387Z,5.03
2022-10-18T13:33:46.052Z,5.43
2022-10-18T13:34:47.692Z,5.78
2022-10-18T13:36:07.797Z,5.18
2022-10-18T13:37:09.271Z,7.00
2022-10-18T13:38:34.587Z,4.43
2022-10-18T13:39:38.234Z,3.65
2022-10-18T13:40:40.061Z,5.13
2022-10-18T13:41:47.686Z,4.32
2022-10-18T13:42:49.275Z,5.65
2022-10-18T13:43:53.592Z,6.97
2022-10-18T13:44:55.159Z,5.63
2022-10-18T13:45:56.777Z,4.95
2022-10-18T13:46:58.346Z,3.88
2022-10-18T13:48:30.882Z,4.53
2022-10-18T13:49:38.586Z,10.00
2022-10-18T13:50:43.454Z,4.13
2022-10-18T13:51:57.882Z,5.40
2022-10-18T13:53:02.385Z,5.03
2022-10-18T13:54:21.945Z,5.95
2022-10-18T13:55:23.530Z,4.68
2022-10-18T13:56:45.304Z,4.72
2022-10-18T13:58:11.708Z,4.30
2022-10-18T13:59:20.905Z,5.95
2022-10-18T14:00:49.127Z,6.22
2022-10-18T14:02:10.000Z,4.95
2022-10-18T14:03:57.526Z,5.85
2022-10-18T14:05:25.051Z,3.28
2022-10-18T14:06:37.255Z,6.32
2022-10-18T14:07:40.666Z,3.33
2022-10-18T14:08:44.708Z,3.05
2022-10-18T14:09:55.635Z,3.88
2022-10-18T14:11:03.289Z,5.28
2022-10-18T14:12:22.949Z,3.38
2022-10-18T14:13:28.845Z,6.50
2022-10-18T14:14:50.369Z,3.70
2022-10-18T14:15:56.066Z,4.90
2022-10-18T14:17:07.390Z,3.03
2022-10-18T14:18:17.410Z,8.35
2022-10-18T14:19:50.832Z,5.13
2022-10-18T14:21:12.768Z,7.60
2022-10-18T14:22:24.986Z,5.72
2022-10-18T14:23:31.645Z,4.20
2022-10-18T14:24:34.221Z,6.50
2022-10-18T14:25:37.924Z,6.78
2022-10-18T14:27:48.693Z,4.35
2022-10-18T14:29:16.021Z,4.70
2022-10-18T14:30:20.228Z,5.68
2022-10-18T14:31:21.764Z,6.57
2022-10-18T14:32:27.778Z,5.00
2022-10-18T14:33:37.060Z,5.57
2022-10-18T14:34:38.776Z,7.38
2022-10-18T14:35:41.354Z,7.07
2022-10-18T14:36:47.715Z,6.35
2022-10-18T14:37:54.304Z,3.15
2022-10-18T14:39:00.792Z,6.13
2022-10-18T14:40:04.296Z,3.08
2022-10-18T14:41:23.595Z,5.57
2022-10-18T14:42:27.608Z,3.85
2022-10-18T14:43:29.142Z,4.25
2022-10-18T14:44:32.134Z,5.72
2022-10-18T14:45:33.795Z,3.42
2022-10-18T14:46:45.701Z,5.15
2022-10-18T14:47:47.546Z,5.25
2022-10-18T14:48:57.014Z,5.35
2022-10-18T14:49:58.818Z,5.07
2022-10-18T14:51:03.766Z,4.32
2022-10-18T14:52:05.607Z,10.02
2022-10-18T14:53:09.586Z,5.70
2022-10-18T14:54:29.056Z,5.95
2022-10-18T14:55:33.984Z,5.18
2022-10-18T14:56:41.792Z,5.15
2022-10-18T14:57:43.697Z,7.47
2022-10-18T14:58:45.554Z,5.40
2022-10-18T14:59:57.204Z,7.57
2022-10-18T15:01:02.550Z,6.97
2022-10-18T15:02:18.244Z,5.60
2022-10-18T15:03:21.034Z,7.47